sensor_id;sensor_type;location;lat;lon;timestamp;pressure;altitude;pressure_sealevel;temperature;humidity
57562;BME280;43397;51.530;5.974;2022-07-12T00:00:21;102062.06;;;16.45;100.00
57562;BME280;43397;51.530;5.974;2022-07-12T00:02:46;102062.00;;;16.51;100.00
57562;BME280;43397;51.530;5.974;2022-07-12T00:05:13;102065.63;;;16.49;100.00
57562;BME280;43397;51.530;5.974;2022-07-12T00:07:38;102056.50;;;16.60;100.00
57562;BME280;43397;51.530;5.974;2022-07-12T00:10:06;102068.38;;;16.44;100.00
57562;BME280;43397;51.530;5.974;2022-07-12T00:12:32;102065.72;;;16.41;100.00
57562;BME280;43397;51.530;5.974;2022-07-12T00:14:58;102066.53;;;16.46;100.00
57562;BME280;43397;51.530;5.974;2022-07-12T00:17:24;102063.75;;;16.52;100.00
57562;BME280;43397;51.530;5.974;2022-07-12T00:19:49;102059.59;;;16.30;100.00
57562;BME280;43397;51.530;5.974;2022-07-12T00:22:15;102064.16;;;16.24;100.00
57562;BME280;43397;51.530;5.974;2022-07-12T00:24:41;102056.22;;;16.14;100.00
57562;BME280;43397;51.530;5.974;2022-07-12T00:27:08;102044.44;;;16.25;100.00
57562;BME280;43397;51.530;5.974;2022-07-12T00:29:34;102048.72;;;16.40;100.00
57562;BME280;43397;51.530;5.974;2022-07-12T00:32:00;102041.88;;;16.18;100.00
57562;BME280;43397;51.530;5.974;2022-07-12T00:34:26;102043.69;;;16.14;100.00
57562;BME280;43397;51.530;5.974;2022-07-12T00:36:52;102041.00;;;16.14;100.00
57562;BME280;43397;51.530;5.974;2022-07-12T00:39:17;102047.06;;;16.30;100.00
57562;BME280;43397;51.530;5.974;2022-07-12T00:41:47;102039.00;;;16.32;100.00
57562;BME280;43397;51.530;5.974;2022-07-12T00:44:14;102032.91;;;16.20;100.00
57562;BME280;43397;51.530;5.974;2022-07-12T00:46:40;102032.09;;;16.12;100.00
57562;BME280;43397;51.530;5.974;2022-07-12T00:49:06;102031.75;;;16.38;100.00
57562;BME280;43397;51.530;5.974;2022-07-12T00:51:33;102031.84;;;16.32;100.00
57562;BME280;43397;51.530;5.974;2022-07-12T00:53:59;102025.06;;;16.02;100.00
57562;BME280;43397;51.530;5.974;2022-07-12T00:56:25;102032.09;;;16.11;100.00
57562;BME280;43397;51.530;5.974;2022-07-12T00:58:51;102031.22;;;16.10;100.00
57562;BME280;43397;51.530;5.974;2022-07-12T01:01:18;102028.72;;;15.95;100.00
57562;BME280;43397;51.530;5.974;2022-07-12T01:03:44;102028.78;;;15.90;100.00
57562;BME280;43397;51.530;5.974;2022-07-12T01:06:11;102036.03;;;15.80;100.00
57562;BME280;43397;51.530;5.974;2022-07-12T01:11:02;102029.78;;;15.78;100.00
57562;BME280;43397;51.530;5.974;2022-07-12T01:13:29;102036.22;;;15.62;100.00
57562;BME280;43397;51.530;5.974;2022-07-12T01:15:55;102036.19;;;15.63;100.00
57562;BME280;43397;51.530;5.974;2022-07-12T01:18:22;102027.19;;;15.68;100.00
57562;BME280;43397;51.530;5.974;2022-07-12T01:20:48;102040.69;;;15.61;100.00
57562;BME280;43397;51.530;5.974;2022-07-12T01:23:16;102042.31;;;15.79;100.00
57562;BME280;43397;51.530;5.974;2022-07-12T01:25:42;102027.97;;;15.82;100.00
57562;BME280;43397;51.530;5.974;2022-07-12T01:28:08;102036.88;;;15.86;100.00
57562;BME280;43397;51.530;5.974;2022-07-12T01:30:34;102035.03;;;15.89;100.00
57562;BME280;43397;51.530;5.974;2022-07-12T01:33:00;102035.16;;;15.81;100.00
57562;BME280;43397;51.530;5.974;2022-07-12T01:35:27;102042.25;;;15.82;100.00
57562;BME280;43397;51.530;5.974;2022-07-12T01:37:53;102045.97;;;15.68;100.00
57562;BME280;43397;51.530;5.974;2022-07-12T01:40:21;102055.84;;;15.62;100.00
57562;BME280;43397;51.530;5.974;2022-07-12T01:42:48;102050.59;;;15.50;100.00
57562;BME280;43397;51.530;5.974;2022-07-12T01:45:14;102061.53;;;15.27;100.00
57562;BME280;43397;51.530;5.974;2022-07-12T01:47:40;102056.94;;;15.43;100.00
57562;BME280;43397;51.530;5.974;2022-07-12T01:50:07;102056.13;;;15.32;100.00
57562;BME280;43397;51.530;5.974;2022-07-12T01:52:35;102073.97;;;15.36;100.00
57562;BME280;43397;51.530;5.974;2022-07-12T01:55:01;102066.00;;;15.25;100.00
57562;BME280;43397;51.530;5.974;2022-07-12T01:57:28;102071.28;;;15.34;100.00
57562;BME280;43397;51.530;5.974;2022-07-12T01:59:55;102074.97;;;15.19;100.00
57562;BME280;43397;51.530;5.974;2022-07-12T02:02:22;102079.50;;;15.14;100.00
57562;BME280;43397;51.530;5.974;2022-07-12T02:04:48;102066.97;;;15.15;100.00
57562;BME280;43397;51.530;5.974;2022-07-12T02:07:14;102058.84;;;15.27;100.00
57562;BME280;43397;51.530;5.974;2022-07-12T02:09:40;102066.22;;;14.99;100.00
57562;BME280;43397;51.530;5.974;2022-07-12T02:12:06;102063.53;;;14.99;100.00
57562;BME280;43397;51.530;5.974;2022-07-12T02:17:03;102074.13;;;15.13;100.00
57562;BME280;43397;51.530;5.974;2022-07-12T02:19:29;102067.91;;;15.14;100.00
57562;BME280;43397;51.530;5.974;2022-07-12T02:21:55;102055.31;;;15.25;100.00
57562;BME280;43397;51.530;5.974;2022-07-12T02:24:21;102053.63;;;15.12;100.00
57562;BME280;43397;51.530;5.974;2022-07-12T02:26:47;102055.31;;;15.23;100.00
57562;BME280;43397;51.530;5.974;2022-07-12T02:29:13;102059.88;;;15.12;100.00
57562;BME280;43397;51.530;5.974;2022-07-12T02:31:39;102054.47;;;15.15;100.00
57562;BME280;43397;51.530;5.974;2022-07-12T02:34:06;102054.50;;;15.14;100.00
57562;BME280;43397;51.530;5.974;2022-07-12T02:36:32;102046.53;;;15.06;100.00
57562;BME280;43397;51.530;5.974;2022-07-12T02:38:58;102054.44;;;15.23;100.00
57562;BME280;43397;51.530;5.974;2022-07-12T02:41:23;102053.47;;;15.32;100.00
57562;BME280;43397;51.530;5.974;2022-07-12T02:43:49;102054.47;;;15.15;100.00
57562;BME280;43397;51.530;5.974;2022-07-12T02:46:15;102060.81;;;15.04;100.00
57562;BME280;43397;51.530;5.974;2022-07-12T02:48:42;102058.06;;;15.16;100.00
57562;BME280;43397;51.530;5.974;2022-07-12T02:51:09;102064.31;;;15.13;100.00
57562;BME280;43397;51.530;5.974;2022-07-12T02:56:01;102046.44;;;15.20;100.00
57562;BME280;43397;51.530;5.974;2022-07-12T02:58:27;102049.19;;;15.05;100.00
57562;BME280;43397;51.530;5.974;2022-07-12T03:00:53;102047.63;;;14.77;100.00
57562;BME280;43397;51.530;5.974;2022-07-12T03:03:20;102053.72;;;15.01;100.00
57562;BME280;43397;51.530;5.974;2022-07-12T03:05:46;102049.19;;;15.09;100.00
57562;BME280;43397;51.530;5.974;2022-07-12T03:08:13;102046.47;;;15.12;100.00
57562;BME280;43397;51.530;5.974;2022-07-12T03:10:39;102050.19;;;14.94;100.00
57562;BME280;43397;51.530;5.974;2022-07-12T03:16:01;102051.00;;;15.07;100.00
57562;BME280;43397;51.530;5.974;2022-07-12T03:18:27;102055.47;;;15.05;100.00
57562;BME280;43397;51.530;5.974;2022-07-12T03:20:53;102059.06;;;15.02;100.00
57562;BME280;43397;51.530;5.974;2022-07-12T03:23:20;102050.16;;;14.96;100.00
57562;BME280;43397;51.530;5.974;2022-07-12T03:25:46;102059.09;;;14.93;100.00
57562;BME280;43397;51.530;5.974;2022-07-12T03:28:11;102053.88;;;14.76;100.00
57562;BME280;43397;51.530;5.974;2022-07-12T03:33:03;102059.19;;;14.86;100.00
57562;BME280;43397;51.530;5.974;2022-07-12T03:35:28;102050.16;;;14.96;100.00
57562;BME280;43397;51.530;5.974;2022-07-12T03:37:54;102054.09;;;15.60;100.00
57562;BME280;43397;51.530;5.974;2022-07-12T03:40:21;102050.38;;;15.78;100.00
57562;BME280;43397;51.530;5.974;2022-07-12T03:42:48;102044.72;;;16.02;100.00
57562;BME280;43397;51.530;5.974;2022-07-12T03:45:14;102050.50;;;15.61;100.00
57562;BME280;43397;51.530;5.974;2022-07-12T03:47:40;102052.66;;;15.19;100.00
57562;BME280;43397;51.530;5.974;2022-07-12T03:50:09;102060.81;;;15.04;100.00
57562;BME280;43397;51.530;5.974;2022-07-12T03:52:35;102056.53;;;14.81;100.00
57562;BME280;43397;51.530;5.974;2022-07-12T03:55:01;102046.84;;;14.62;100.00
57562;BME280;43397;51.530;5.974;2022-07-12T03:57:28;102048.59;;;14.63;100.00
57562;BME280;43397;51.530;5.974;2022-07-12T03:59:55;102058.41;;;14.62;100.00
57562;BME280;43397;51.530;5.974;2022-07-12T04:02:21;102057.50;;;14.65;100.00
57562;BME280;43397;51.530;5.974;2022-07-12T04:04:47;102062.84;;;14.65;100.00
57562;BME280;43397;51.530;5.974;2022-07-12T04:07:13;102066.31;;;14.82;100.00
57562;BME280;43397;51.530;5.974;2022-07-12T04:09:39;102066.38;;;14.74;100.00
57562;BME280;43397;51.530;5.974;2022-07-12T04:12:05;102063.81;;;14.59;100.00
57562;BME280;43397;51.530;5.974;2022-07-12T04:14:32;102056.69;;;14.46;100.00
57562;BME280;43397;51.530;5.974;2022-07-12T04:16:58;102065.63;;;14.40;100.00
57562;BME280;43397;51.530;5.974;2022-07-12T04:19:24;102064.69;;;14.59;100.00
57562;BME280;43397;51.530;5.974;2022-07-12T04:21:50;102054.88;;;14.60;100.00
57562;BME280;43397;51.530;5.974;2022-07-12T04:24:19;102047.72;;;14.60;100.00
57562;BME280;43397;51.530;5.974;2022-07-12T04:26:44;102056.59;;;14.70;100.00
57562;BME280;43397;51.530;5.974;2022-07-12T04:29:10;102053.66;;;15.04;100.00
57562;BME280;43397;51.530;5.974;2022-07-12T04:34:04;102052.78;;;15.04;100.00
57562;BME280;43397;51.530;5.974;2022-07-12T04:36:29;102049.13;;;15.18;100.00
57562;BME280;43397;51.530;5.974;2022-07-12T04:38:55;102046.44;;;15.15;100.00
57562;BME280;43397;51.530;5.974;2022-07-12T04:41:21;102045.59;;;15.09;100.00
57562;BME280;43397;51.530;5.974;2022-07-12T04:43:47;102044.66;;;15.16;100.00
57562;BME280;43397;51.530;5.974;2022-07-12T04:46:13;102045.47;;;15.24;100.00
57562;BME280;43397;51.530;5.974;2022-07-12T04:48:39;102048.09;;;15.30;100.00
57562;BME280;43397;51.530;5.974;2022-07-12T04:51:06;102056.13;;;15.32;100.00
57562;BME280;43397;51.530;5.974;2022-07-12T04:53:32;102056.03;;;15.42;100.00
57562;BME280;43397;51.530;5.974;2022-07-12T04:55:58;102059.59;;;15.41;100.00
57562;BME280;43397;51.530;5.974;2022-07-12T04:58:23;102064.91;;;15.49;100.00
57562;BME280;43397;51.530;5.974;2022-07-12T05:00:50;102061.31;;;15.50;100.00
57562;BME280;43397;51.530;5.974;2022-07-12T05:03:16;102063.88;;;15.62;100.00
57562;BME280;43397;51.530;5.974;2022-07-12T05:05:42;102076.28;;;15.77;100.00
57562;BME280;43397;51.530;5.974;2022-07-12T05:08:09;102070.06;;;15.75;100.00
57562;BME280;43397;51.530;5.974;2022-07-12T05:10:35;102072.63;;;15.84;100.00
57562;BME280;43397;51.530;5.974;2022-07-12T05:13:00;102065.41;;;15.93;100.00
57562;BME280;43397;51.530;5.974;2022-07-12T05:15:26;102061.78;;;15.95;100.00
57562;BME280;43397;51.530;5.974;2022-07-12T05:17:52;102065.34;;;15.99;100.00
57562;BME280;43397;51.530;5.974;2022-07-12T05:20:18;102064.41;;;16.01;100.00
57562;BME280;43397;51.530;5.974;2022-07-12T05:22:44;102069.72;;;16.08;100.00
57562;BME280;43397;51.530;5.974;2022-07-12T05:25:11;102080.31;;;16.18;100.00
57562;BME280;43397;51.530;5.974;2022-07-12T05:30:03;102086.63;;;16.14;100.00
57562;BME280;43397;51.530;5.974;2022-07-12T05:32:29;102080.25;;;16.21;100.00
57562;BME280;43397;51.530;5.974;2022-07-12T05:34:55;102081.94;;;16.32;100.00
57562;BME280;43397;51.530;5.974;2022-07-12T05:37:21;102087.97;;;16.49;100.00
57562;BME280;43397;51.530;5.974;2022-07-12T05:39:47;102087.84;;;16.57;100.00
57562;BME280;43397;51.530;5.974;2022-07-12T05:42:14;102089.63;;;16.59;100.00
57562;BME280;43397;51.530;5.974;2022-07-12T05:44:43;102102.19;;;16.57;100.00
57562;BME280;43397;51.530;5.974;2022-07-12T05:47:09;102097.63;;;16.64;100.00
57562;BME280;43397;51.530;5.974;2022-07-12T05:49:35;102099.34;;;16.68;100.00
57562;BME280;43397;51.530;5.974;2022-07-12T05:52:01;102110.03;;;16.71;100.00
57562;BME280;43397;51.530;5.974;2022-07-12T05:54:27;102109.09;;;16.77;100.00
57562;BME280;43397;51.530;5.974;2022-07-12T05:56:52;102109.06;;;16.80;100.00
57562;BME280;43397;51.530;5.974;2022-07-12T05:59:20;102103.59;;;16.88;100.00
57562;BME280;43397;51.530;5.974;2022-07-12T06:01:48;102113.34;;;16.93;100.00
57562;BME280;43397;51.530;5.974;2022-07-12T06:04:14;102108.75;;;17.01;100.00
57562;BME280;43397;51.530;5.974;2022-07-12T06:06:40;102114.00;;;17.09;100.00
57562;BME280;43397;51.530;5.974;2022-07-12T06:09:06;102123.69;;;17.19;100.00
57562;BME280;43397;51.530;5.974;2022-07-12T06:11:32;102126.34;;;17.22;100.00
57562;BME280;43397;51.530;5.974;2022-07-12T06:13:58;102127.94;;;17.36;100.00
57562;BME280;43397;51.530;5.974;2022-07-12T06:16:25;102128.75;;;17.39;100.00
57562;BME280;43397;51.530;5.974;2022-07-12T06:18:51;102134.97;;;17.43;100.00
57562;BME280;43397;51.530;5.974;2022-07-12T06:21:16;102139.38;;;17.48;100.00
57562;BME280;43397;51.530;5.974;2022-07-12T06:23:42;102138.44;;;17.51;100.00
57562;BME280;43397;51.530;5.974;2022-07-12T06:26:10;102152.66;;;17.58;100.00
57562;BME280;43397;51.530;5.974;2022-07-12T06:31:01;102152.38;;;17.73;100.00
57562;BME280;43397;51.530;5.974;2022-07-12T06:33:29;102145.97;;;17.80;100.00
57562;BME280;43397;51.530;5.974;2022-07-12T06:35:54;102144.16;;;17.84;100.00
57562;BME280;43397;51.530;5.974;2022-07-12T06:38:20;102147.63;;;17.92;100.00
57562;BME280;43397;51.530;5.974;2022-07-12T06:40:46;102142.09;;;17.98;100.00
57562;BME280;43397;51.530;5.974;2022-07-12T06:43:12;102151.88;;;18.02;100.00
57562;BME280;43397;51.530;5.974;2022-07-12T06:48:04;102147.28;;;18.09;100.00
57562;BME280;43397;51.530;5.974;2022-07-12T06:50:31;102155.31;;;18.12;100.00
57562;BME280;43397;51.530;5.974;2022-07-12T06:52:57;102152.41;;;18.23;100.00
57562;BME280;43397;51.530;5.974;2022-07-12T06:55:23;102155.81;;;18.31;100.00
57562;BME280;43397;51.530;5.974;2022-07-12T06:57:49;102154.84;;;18.35;100.00
57562;BME280;43397;51.530;5.974;2022-07-12T07:00:15;102150.22;;;18.42;100.00
57562;BME280;43397;51.530;5.974;2022-07-12T07:02:42;102143.91;;;18.44;100.00
57562;BME280;43397;51.530;5.974;2022-07-12T07:05:08;102142.06;;;18.46;100.00
57562;BME280;43397;51.530;5.974;2022-07-12T07:07:35;102145.59;;;18.48;100.00
57562;BME280;43397;51.530;5.974;2022-07-12T07:10:01;102149.06;;;18.55;100.00
57562;BME280;43397;51.530;5.974;2022-07-12T07:12:26;102151.69;;;18.60;100.00
57562;BME280;43397;51.530;5.974;2022-07-12T07:14:52;102152.38;;;18.68;100.00
57562;BME280;43397;51.530;5.974;2022-07-12T07:17:18;102154.94;;;18.74;100.00
57562;BME280;43397;51.530;5.974;2022-07-12T07:19:44;102150.97;;;18.94;100.00
57562;BME280;43397;51.530;5.974;2022-07-12T07:22:10;102153.75;;;18.90;100.00
57562;BME280;43397;51.530;5.974;2022-07-12T07:27:04;102151.69;;;19.02;100.00
57562;BME280;43397;51.530;5.974;2022-07-12T07:29:30;102145.19;;;19.10;100.00
57562;BME280;43397;51.530;5.974;2022-07-12T07:31:56;102150.38;;;19.18;100.00
57562;BME280;43397;51.530;5.974;2022-07-12T07:34:22;102149.38;;;19.24;100.00
57562;BME280;43397;51.530;5.974;2022-07-12T07:36:47;102153.56;;;19.36;100.00
57562;BME280;43397;51.530;5.974;2022-07-12T07:39:13;102153.28;;;19.48;100.00
57562;BME280;43397;51.530;5.974;2022-07-12T07:44:06;102148.47;;;19.61;100.00
57562;BME280;43397;51.530;5.974;2022-07-12T07:46:32;102148.97;;;19.78;99.33
57562;BME280;43397;51.530;5.974;2022-07-12T07:48:57;102156.81;;;19.87;99.97
57562;BME280;43397;51.530;5.974;2022-07-12T07:51:23;102156.53;;;19.98;100.00
57562;BME280;43397;51.530;5.974;2022-07-12T07:53:49;102142.75;;;20.09;100.00
57562;BME280;43397;51.530;5.974;2022-07-12T07:56:15;102145.69;;;20.32;97.48
57562;BME280;43397;51.530;5.974;2022-07-12T07:58:41;102148.22;;;20.39;94.42
57562;BME280;43397;51.530;5.974;2022-07-12T08:01:08;102146.28;;;20.42;95.02
57562;BME280;43397;51.530;5.974;2022-07-12T08:03:34;102146.13;;;20.48;94.46
57562;BME280;43397;51.530;5.974;2022-07-12T08:06:00;102137.00;;;20.52;93.83
57562;BME280;43397;51.530;5.974;2022-07-12T08:08:26;102148.50;;;20.61;92.51
57562;BME280;43397;51.530;5.974;2022-07-12T08:10:52;102146.41;;;20.70;93.80
57562;BME280;43397;51.530;5.974;2022-07-12T08:13:19;102148.78;;;20.81;91.96
57562;BME280;43397;51.530;5.974;2022-07-12T08:15:45;102138.66;;;20.88;89.58
57562;BME280;43397;51.530;5.974;2022-07-12T08:18:12;102136.63;;;20.96;88.91
57562;BME280;43397;51.530;5.974;2022-07-12T08:23:03;102127.59;;;21.25;86.99
57562;BME280;43397;51.530;5.974;2022-07-12T08:25:29;102132.25;;;21.48;88.82
57562;BME280;43397;51.530;5.974;2022-07-12T08:27:55;102138.00;;;21.66;82.35
57562;BME280;43397;51.530;5.974;2022-07-12T08:30:21;102126.97;;;21.72;81.74
57562;BME280;43397;51.530;5.974;2022-07-12T08:32:47;102128.78;;;21.71;86.02
57562;BME280;43397;51.530;5.974;2022-07-12T08:35:14;102125.59;;;21.85;82.07
57562;BME280;43397;51.530;5.974;2022-07-12T08:37:40;102125.03;;;22.01;78.69
57562;BME280;43397;51.530;5.974;2022-07-12T08:40:07;102117.91;;;21.98;78.57
57562;BME280;43397;51.530;5.974;2022-07-12T08:42:33;102130.72;;;21.41;79.57
57562;BME280;43397;51.530;5.974;2022-07-12T08:44:59;102127.13;;;21.39;82.39
57562;BME280;43397;51.530;5.974;2022-07-12T08:47:25;102138.09;;;21.63;80.92
57562;BME280;43397;51.530;5.974;2022-07-12T08:50:11;102135.16;;;21.95;84.02
57562;BME280;43397;51.530;5.974;2022-07-12T08:55:15;102139.00;;;22.64;80.28
57562;BME280;43397;51.530;5.974;2022-07-12T08:57:41;102138.16;;;22.85;76.20
57562;BME280;43397;51.530;5.974;2022-07-12T09:00:08;102136.56;;;22.79;76.22
57562;BME280;43397;51.530;5.974;2022-07-12T09:05:05;102133.88;;;23.03;72.68
57562;BME280;43397;51.530;5.974;2022-07-12T09:07:34;102144.59;;;23.06;73.07
57562;BME280;43397;51.530;5.974;2022-07-12T09:10:03;102146.41;;;23.28;71.63
57562;BME280;43397;51.530;5.974;2022-07-12T09:12:30;102152.75;;;23.50;72.44
57562;BME280;43397;51.530;5.974;2022-07-12T09:15:10;102152.13;;;23.22;70.81
57562;BME280;43397;51.530;5.974;2022-07-12T09:17:36;102157.34;;;23.48;70.86
57562;BME280;43397;51.530;5.974;2022-07-12T09:20:03;102156.28;;;23.30;72.67
57562;BME280;43397;51.530;5.974;2022-07-12T09:22:29;102159.44;;;23.41;70.02
57562;BME280;43397;51.530;5.974;2022-07-12T09:24:55;102164.41;;;23.52;69.50
57562;BME280;43397;51.530;5.974;2022-07-12T09:27:24;102164.28;;;23.55;67.89
57562;BME280;43397;51.530;5.974;2022-07-12T09:29:52;102153.56;;;23.30;69.18
57562;BME280;43397;51.530;5.974;2022-07-12T09:32:18;102155.50;;;23.49;67.65
57562;BME280;43397;51.530;5.974;2022-07-12T09:34:55;102145.88;;;23.84;64.76
57562;BME280;43397;51.530;5.974;2022-07-12T09:37:23;102143.19;;;24.05;68.05
57562;BME280;43397;51.530;5.974;2022-07-12T09:39:51;102155.09;;;24.02;64.83
57562;BME280;43397;51.530;5.974;2022-07-12T09:42:18;102148.63;;;24.05;65.07
57562;BME280;43397;51.530;5.974;2022-07-12T09:44:44;102148.16;;;24.15;64.87
57562;BME280;43397;51.530;5.974;2022-07-12T09:47:13;102145.22;;;24.20;66.62
57562;BME280;43397;51.530;5.974;2022-07-12T09:52:05;102144.25;;;24.21;62.54
57562;BME280;43397;51.530;5.974;2022-07-12T09:57:05;102125.28;;;24.60;66.27
57562;BME280;43397;51.530;5.974;2022-07-12T10:02:02;102134.19;;;24.64;65.86
57562;BME280;43397;51.530;5.974;2022-07-12T10:04:29;102132.00;;;24.91;65.99
57562;BME280;43397;51.530;5.974;2022-07-12T10:06:56;102131.91;;;24.55;62.64
57562;BME280;43397;51.530;5.974;2022-07-12T10:09:23;102138.69;;;24.65;61.97
57562;BME280;43397;51.530;5.974;2022-07-12T10:11:50;102141.00;;;25.11;59.32
57562;BME280;43397;51.530;5.974;2022-07-12T10:14:19;102143.47;;;24.98;60.94
57562;BME280;43397;51.530;5.974;2022-07-12T10:16:45;102147.88;;;25.00;59.54
57562;BME280;43397;51.530;5.974;2022-07-12T10:19:26;102144.69;;;25.29;57.63
57562;BME280;43397;51.530;5.974;2022-07-12T10:21:54;102137.78;;;25.21;60.21
57562;BME280;43397;51.530;5.974;2022-07-12T10:27:26;102136.22;;;25.16;62.44
57562;BME280;43397;51.530;5.974;2022-07-12T10:30:12;102135.50;;;25.12;60.37
57562;BME280;43397;51.530;5.974;2022-07-12T10:35:05;102116.56;;;25.82;63.20
57562;BME280;43397;51.530;5.974;2022-07-12T10:37:32;102124.38;;;26.07;59.83
57562;BME280;43397;51.530;5.974;2022-07-12T10:40:12;102111.69;;;26.06;59.32
57562;BME280;43397;51.530;5.974;2022-07-12T10:45:11;102119.25;;;26.34;59.38
57562;BME280;43397;51.530;5.974;2022-07-12T10:50:03;102116.25;;;26.56;55.77
57562;BME280;43397;51.530;5.974;2022-07-12T10:52:29;102107.13;;;26.89;60.70
57562;BME280;43397;51.530;5.974;2022-07-12T10:55:17;102111.63;;;27.06;57.36
57562;BME280;43397;51.530;5.974;2022-07-12T10:57:44;102113.47;;;27.05;54.93
57562;BME280;43397;51.530;5.974;2022-07-12T11:00:12;102116.47;;;26.52;54.52
57562;BME280;43397;51.530;5.974;2022-07-12T11:05:04;102104.53;;;26.21;55.14
57562;BME280;43397;51.530;5.974;2022-07-12T11:07:30;102105.28;;;26.74;56.00
57562;BME280;43397;51.530;5.974;2022-07-12T11:09:56;102121.38;;;26.78;55.92
57562;BME280;43397;51.530;5.974;2022-07-12T11:12:27;102115.16;;;27.24;53.64
57562;BME280;43397;51.530;5.974;2022-07-12T11:14:53;102108.78;;;27.39;53.90
57562;BME280;43397;51.530;5.974;2022-07-12T11:17:25;102102.16;;;27.59;52.97
57562;BME280;43397;51.530;5.974;2022-07-12T11:20:06;102112.69;;;26.87;52.79
57562;BME280;43397;51.530;5.974;2022-07-12T11:22:32;102103.56;;;26.39;53.44
57562;BME280;43397;51.530;5.974;2022-07-12T11:24:58;102100.22;;;26.50;50.34
57562;BME280;43397;51.530;5.974;2022-07-12T11:27:25;102097.72;;;26.79;49.28
57562;BME280;43397;51.530;5.974;2022-07-12T11:29:58;102083.13;;;27.58;53.24
57562;BME280;43397;51.530;5.974;2022-07-12T11:35:03;102089.88;;;27.04;51.38
57562;BME280;43397;51.530;5.974;2022-07-12T11:37:29;102087.16;;;26.88;51.91
57562;BME280;43397;51.530;5.974;2022-07-12T11:39:55;102082.88;;;27.00;51.37
57562;BME280;43397;51.530;5.974;2022-07-12T11:42:21;102091.03;;;27.16;52.83
57562;BME280;43397;51.530;5.974;2022-07-12T11:44:47;102084.75;;;27.46;50.40
57562;BME280;43397;51.530;5.974;2022-07-12T11:47:14;102095.91;;;27.57;53.56
57562;BME280;43397;51.530;5.974;2022-07-12T11:49:46;102097.09;;;27.67;53.17
57562;BME280;43397;51.530;5.974;2022-07-12T11:52:13;102094.00;;;27.74;51.19
57562;BME280;43397;51.530;5.974;2022-07-12T11:57:06;102094.06;;;27.88;49.20
57562;BME280;43397;51.530;5.974;2022-07-12T11:59:31;102090.44;;;26.79;50.45
57562;BME280;43397;51.530;5.974;2022-07-12T12:02:05;102088.03;;;27.05;52.89
57562;BME280;43397;51.530;5.974;2022-07-12T12:04:31;102085.50;;;27.48;48.08
57562;BME280;43397;51.530;5.974;2022-07-12T12:06:58;102080.97;;;27.48;47.68
57562;BME280;43397;51.530;5.974;2022-07-12T12:09:24;102081.53;;;27.84;48.76
57562;BME280;43397;51.530;5.974;2022-07-12T12:11:50;102090.28;;;28.19;48.58
57562;BME280;43397;51.530;5.974;2022-07-12T12:14:16;102088.66;;;28.31;45.54
57562;BME280;43397;51.530;5.974;2022-07-12T12:16:41;102086.59;;;28.20;46.50
57562;BME280;43397;51.530;5.974;2022-07-12T12:19:10;102093.34;;;28.29;44.17
57562;BME280;43397;51.530;5.974;2022-07-12T12:21:36;102089.47;;;27.88;45.66
57562;BME280;43397;51.530;5.974;2022-07-12T12:24:10;102088.34;;;28.07;45.38
57562;BME280;43397;51.530;5.974;2022-07-12T12:26:36;102076.91;;;28.15;46.08
57562;BME280;43397;51.530;5.974;2022-07-12T12:29:02;102080.50;;;27.86;46.12
57562;BME280;43397;51.530;5.974;2022-07-12T12:31:27;102082.19;;;28.32;46.85
57562;BME280;43397;51.530;5.974;2022-07-12T12:33:54;102073.19;;;28.30;46.35
57562;BME280;43397;51.530;5.974;2022-07-12T12:36:22;102077.09;;;28.69;45.62
57562;BME280;43397;51.530;5.974;2022-07-12T12:38:49;102071.06;;;28.49;45.08
57562;BME280;43397;51.530;5.974;2022-07-12T12:41:17;102068.41;;;28.62;43.49
57562;BME280;43397;51.530;5.974;2022-07-12T12:43:43;102063.91;;;28.76;42.89
57562;BME280;43397;51.530;5.974;2022-07-12T12:46:09;102058.97;;;28.54;46.13
57562;BME280;43397;51.530;5.974;2022-07-12T12:48:36;102066.78;;;28.60;43.66
57562;BME280;43397;51.530;5.974;2022-07-12T12:51:04;102059.81;;;28.68;45.61
57562;BME280;43397;51.530;5.974;2022-07-12T12:53:31;102065.69;;;28.19;44.32
57562;BME280;43397;51.530;5.974;2022-07-12T12:55:57;102059.03;;;27.95;44.75
57562;BME280;43397;51.530;5.974;2022-07-12T12:58:25;102063.66;;;27.78;44.22
57562;BME280;43397;51.530;5.974;2022-07-12T13:00:52;102055.22;;;27.97;44.87
57562;BME280;43397;51.530;5.974;2022-07-12T13:03:19;102051.94;;;27.76;45.45
57562;BME280;43397;51.530;5.974;2022-07-12T13:05:47;102059.34;;;28.19;46.07
57562;BME280;43397;51.530;5.974;2022-07-12T13:08:14;102055.22;;;28.40;45.83
57562;BME280;43397;51.530;5.974;2022-07-12T13:10:41;102053.41;;;28.55;44.93
57562;BME280;43397;51.530;5.974;2022-07-12T13:13:08;102052.66;;;28.80;45.28
57562;BME280;43397;51.530;5.974;2022-07-12T13:15:37;102065.47;;;28.80;43.02
57562;BME280;43397;51.530;5.974;2022-07-12T13:18:03;102064.50;;;28.23;43.25
57562;BME280;43397;51.530;5.974;2022-07-12T13:20:30;102052.50;;;28.55;42.04
57562;BME280;43397;51.530;5.974;2022-07-12T13:22:56;102052.81;;;28.50;43.83
57562;BME280;43397;51.530;5.974;2022-07-12T13:25:23;102063.44;;;28.55;41.47
57562;BME280;43397;51.530;5.974;2022-07-12T13:27:49;102050.75;;;28.10;41.10
57562;BME280;43397;51.530;5.974;2022-07-12T13:30:16;102058.81;;;28.69;42.47
57562;BME280;43397;51.530;5.974;2022-07-12T13:32:43;102063.50;;;28.67;42.34
57562;BME280;43397;51.530;5.974;2022-07-12T13:35:10;102055.06;;;28.58;42.63
57562;BME280;43397;51.530;5.974;2022-07-12T13:40:03;102054.84;;;28.18;42.68
57562;BME280;43397;51.530;5.974;2022-07-12T13:42:29;102056.97;;;28.41;42.38
57562;BME280;43397;51.530;5.974;2022-07-12T13:44:55;102053.19;;;28.58;41.31